sensor_id;sensor_type;location;lat;lon;timestamp;temperature;humidity
71088;SHT31;58747;50.674;4.616;2022-07-30T00:00:52;16.78;76.07
71088;SHT31;58747;50.674;4.616;2022-07-30T00:03:18;16.76;75.96
71088;SHT31;58747;50.674;4.616;2022-07-30T00:05:43;16.69;76.13
71088;SHT31;58747;50.674;4.616;2022-07-30T00:08:08;16.64;76.07
71088;SHT31;58747;50.674;4.616;2022-07-30T00:10:34;16.57;76.24
71088;SHT31;58747;50.674;4.616;2022-07-30T00:12:59;16.53;76.35
71088;SHT31;58747;50.674;4.616;2022-07-30T00:15:25;16.50;76.53
71088;SHT31;58747;50.674;4.616;2022-07-30T00:17:50;16.41;77.09
71088;SHT31;58747;50.674;4.616;2022-07-30T00:20:15;16.40;77.43
71088;SHT31;58747;50.674;4.616;2022-07-30T00:22:41;16.37;77.85
71088;SHT31;58747;50.674;4.616;2022-07-30T00:25:06;16.30;77.50
71088;SHT31;58747;50.674;4.616;2022-07-30T00:27:32;16.27;77.67
71088;SHT31;58747;50.674;4.616;2022-07-30T00:29:59;16.33;77.76
71088;SHT31;58747;50.674;4.616;2022-07-30T00:32:25;16.26;78.37
71088;SHT31;58747;50.674;4.616;2022-07-30T00:34:50;16.24;78.08
71088;SHT31;58747;50.674;4.616;2022-07-30T00:37:16;16.16;78.05
71088;SHT31;58747;50.674;4.616;2022-07-30T00:39:41;16.10;78.20
71088;SHT31;58747;50.674;4.616;2022-07-30T00:42:07;16.03;78.55
71088;SHT31;58747;50.674;4.616;2022-07-30T00:44:32;16.00;78.75
71088;SHT31;58747;50.674;4.616;2022-07-30T00:46:58;15.96;79.23
71088;SHT31;58747;50.674;4.616;2022-07-30T00:49:23;15.96;79.38
71088;SHT31;58747;50.674;4.616;2022-07-30T00:51:50;15.93;78.88
71088;SHT31;58747;50.674;4.616;2022-07-30T00:54:16;15.89;78.84
71088;SHT31;58747;50.674;4.616;2022-07-30T00:56:41;15.83;79.35
71088;SHT31;58747;50.674;4.616;2022-07-30T00:59:07;15.82;79.29
71088;SHT31;58747;50.674;4.616;2022-07-30T01:01:33;15.81;79.40
71088;SHT31;58747;50.674;4.616;2022-07-30T01:03:58;15.73;79.05
71088;SHT31;58747;50.674;4.616;2022-07-30T01:06:24;15.63;79.47
71088;SHT31;58747;50.674;4.616;2022-07-30T01:08:50;15.57;79.42
71088;SHT31;58747;50.674;4.616;2022-07-30T01:11:15;15.51;80.04
71088;SHT31;58747;50.674;4.616;2022-07-30T01:13:41;15.51;79.84
71088;SHT31;58747;50.674;4.616;2022-07-30T01:16:08;15.48;79.78
71088;SHT31;58747;50.674;4.616;2022-07-30T01:18:34;15.45;80.01
71088;SHT31;58747;50.674;4.616;2022-07-30T01:21:26;15.38;80.48
71088;SHT31;58747;50.674;4.616;2022-07-30T01:23:57;15.28;80.79
71088;SHT31;58747;50.674;4.616;2022-07-30T01:26:25;15.30;80.51
71088;SHT31;58747;50.674;4.616;2022-07-30T01:28:53;15.24;80.29
71088;SHT31;58747;50.674;4.616;2022-07-30T01:31:19;15.21;80.13
71088;SHT31;58747;50.674;4.616;2022-07-30T01:33:47;15.18;80.19
71088;SHT31;58747;50.674;4.616;2022-07-30T01:36:15;15.16;81.04
71088;SHT31;58747;50.674;4.616;2022-07-30T01:38:43;15.17;81.21
71088;SHT31;58747;50.674;4.616;2022-07-30T01:41:10;15.10;80.83
71088;SHT31;58747;50.674;4.616;2022-07-30T01:43:37;15.07;80.84
71088;SHT31;58747;50.674;4.616;2022-07-30T01:46:04;15.07;80.90
71088;SHT31;58747;50.674;4.616;2022-07-30T01:48:34;15.06;81.56
71088;SHT31;58747;50.674;4.616;2022-07-30T01:51:03;15.03;81.72
71088;SHT31;58747;50.674;4.616;2022-07-30T01:53:31;15.00;81.77
71088;SHT31;58747;50.674;4.616;2022-07-30T01:55:59;15.00;81.66
71088;SHT31;58747;50.674;4.616;2022-07-30T01:58:28;14.97;81.33
71088;SHT31;58747;50.674;4.616;2022-07-30T02:00:55;14.90;82.11
71088;SHT31;58747;50.674;4.616;2022-07-30T02:03:23;14.86;82.38
71088;SHT31;58747;50.674;4.616;2022-07-30T02:06:07;14.84;82.63
71088;SHT31;58747;50.674;4.616;2022-07-30T02:11:05;14.77;82.25
71088;SHT31;58747;50.674;4.616;2022-07-30T02:13:33;14.79;81.71
71088;SHT31;58747;50.674;4.616;2022-07-30T02:16:17;14.75;81.71
71088;SHT31;58747;50.674;4.616;2022-07-30T02:19:16;14.75;82.29
71088;SHT31;58747;50.674;4.616;2022-07-30T02:21:47;14.73;82.52
71088;SHT31;58747;50.674;4.616;2022-07-30T02:24:15;14.72;82.32
71088;SHT31;58747;50.674;4.616;2022-07-30T02:26:47;14.70;82.51
71088;SHT31;58747;50.674;4.616;2022-07-30T02:29:15;14.63;82.34
71088;SHT31;58747;50.674;4.616;2022-07-30T02:31:43;14.60;82.48
71088;SHT31;58747;50.674;4.616;2022-07-30T02:34:09;14.60;82.48
71088;SHT31;58747;50.674;4.616;2022-07-30T02:36:38;14.55;82.88
71088;SHT31;58747;50.674;4.616;2022-07-30T02:39:05;14.58;83.22
71088;SHT31;58747;50.674;4.616;2022-07-30T02:41:34;14.52;82.51
71088;SHT31;58747;50.674;4.616;2022-07-30T02:44:03;14.49;82.35
71088;SHT31;58747;50.674;4.616;2022-07-30T02:46:30;14.43;82.86
71088;SHT31;58747;50.674;4.616;2022-07-30T02:48:57;14.42;83.35
71088;SHT31;58747;50.674;4.616;2022-07-30T02:51:24;14.45;84.06
71088;SHT31;58747;50.674;4.616;2022-07-30T02:53:50;14.45;84.03
71088;SHT31;58747;50.674;4.616;2022-07-30T02:56:18;14.45;83.94
71088;SHT31;58747;50.674;4.616;2022-07-30T02:58:45;14.49;83.95
71088;SHT31;58747;50.674;4.616;2022-07-30T03:01:13;14.52;84.41
71088;SHT31;58747;50.674;4.616;2022-07-30T03:03:42;14.46;84.48
71088;SHT31;58747;50.674;4.616;2022-07-30T03:06:08;14.46;84.89
71088;SHT31;58747;50.674;4.616;2022-07-30T03:08:34;14.45;85.17
71088;SHT31;58747;50.674;4.616;2022-07-30T03:11:01;14.43;85.11
71088;SHT31;58747;50.674;4.616;2022-07-30T03:13:27;14.42;84.86
71088;SHT31;58747;50.674;4.616;2022-07-30T03:15:56;14.46;84.73
71088;SHT31;58747;50.674;4.616;2022-07-30T03:18:23;14.42;84.64
71088;SHT31;58747;50.674;4.616;2022-07-30T03:20:53;14.39;84.37
71088;SHT31;58747;50.674;4.616;2022-07-30T03:23:21;14.36;84.42
71088;SHT31;58747;50.674;4.616;2022-07-30T03:25:56;14.33;84.91
71088;SHT31;58747;50.674;4.616;2022-07-30T03:28:23;14.33;85.06
71088;SHT31;58747;50.674;4.616;2022-07-30T03:30:50;14.33;85.53
71088;SHT31;58747;50.674;4.616;2022-07-30T03:33:16;14.38;85.74
71088;SHT31;58747;50.674;4.616;2022-07-30T03:35:44;14.36;85.85
71088;SHT31;58747;50.674;4.616;2022-07-30T03:38:13;14.35;85.85
71088;SHT31;58747;50.674;4.616;2022-07-30T03:40:40;14.31;85.64
71088;SHT31;58747;50.674;4.616;2022-07-30T03:43:08;14.29;85.53
71088;SHT31;58747;50.674;4.616;2022-07-30T03:45:35;14.28;85.34
71088;SHT31;58747;50.674;4.616;2022-07-30T03:48:03;14.25;85.40
71088;SHT31;58747;50.674;4.616;2022-07-30T03:50:29;14.28;85.38
71088;SHT31;58747;50.674;4.616;2022-07-30T03:52:55;14.25;85.43
71088;SHT31;58747;50.674;4.616;2022-07-30T03:55:21;14.22;85.67
71088;SHT31;58747;50.674;4.616;2022-07-30T03:57:47;14.24;85.67
71088;SHT31;58747;50.674;4.616;2022-07-30T04:00:13;14.24;85.60
71088;SHT31;58747;50.674;4.616;2022-07-30T04:02:43;14.22;85.98
71088;SHT31;58747;50.674;4.616;2022-07-30T04:05:13;14.21;85.73
71088;SHT31;58747;50.674;4.616;2022-07-30T04:07:39;14.22;85.46
71088;SHT31;58747;50.674;4.616;2022-07-30T04:10:05;14.22;85.33
71088;SHT31;58747;50.674;4.616;2022-07-30T04:12:31;14.21;85.21
71088;SHT31;58747;50.674;4.616;2022-07-30T04:14:57;14.21;85.10
71088;SHT31;58747;50.674;4.616;2022-07-30T04:19:53;14.24;85.00
71088;SHT31;58747;50.674;4.616;2022-07-30T04:22:23;14.20;85.32
71088;SHT31;58747;50.674;4.616;2022-07-30T04:24:52;14.18;85.13
71088;SHT31;58747;50.674;4.616;2022-07-30T04:27:18;14.15;85.11
71088;SHT31;58747;50.674;4.616;2022-07-30T04:29:44;14.15;85.35
71088;SHT31;58747;50.674;4.616;2022-07-30T04:32:10;14.15;85.56
71088;SHT31;58747;50.674;4.616;2022-07-30T04:34:44;14.18;85.54
71088;SHT31;58747;50.674;4.616;2022-07-30T04:37:10;14.24;85.78
71088;SHT31;58747;50.674;4.616;2022-07-30T04:39:35;14.22;85.85
71088;SHT31;58747;50.674;4.616;2022-07-30T04:42:00;14.29;87.17
71088;SHT31;58747;50.674;4.616;2022-07-30T04:44:26;14.36;87.39
71088;SHT31;58747;50.674;4.616;2022-07-30T04:46:51;14.41;87.47
71088;SHT31;58747;50.674;4.616;2022-07-30T04:49:17;14.46;87.75
71088;SHT31;58747;50.674;4.616;2022-07-30T04:51:44;14.52;87.31
71088;SHT31;58747;50.674;4.616;2022-07-30T04:54:12;14.56;87.18
71088;SHT31;58747;50.674;4.616;2022-07-30T04:56:38;14.58;87.03
71088;SHT31;58747;50.674;4.616;2022-07-30T04:59:05;14.62;86.57
71088;SHT31;58747;50.674;4.616;2022-07-30T05:01:33;14.68;86.97
71088;SHT31;58747;50.674;4.616;2022-07-30T05:04:00;14.69;87.43
71088;SHT31;58747;50.674;4.616;2022-07-30T05:06:27;14.70;87.94
71088;SHT31;58747;50.674;4.616;2022-07-30T05:08:53;14.75;87.68
71088;SHT31;58747;50.674;4.616;2022-07-30T05:11:18;14.79;87.59
71088;SHT31;58747;50.674;4.616;2022-07-30T05:13:46;14.87;87.60
71088;SHT31;58747;50.674;4.616;2022-07-30T05:16:15;14.93;87.25
71088;SHT31;58747;50.674;4.616;2022-07-30T05:18:41;14.99;87.58
71088;SHT31;58747;50.674;4.616;2022-07-30T05:21:06;15.07;87.25
71088;SHT31;58747;50.674;4.616;2022-07-30T05:23:32;15.17;87.17
71088;SHT31;58747;50.674;4.616;2022-07-30T05:25:58;15.20;87.16
71088;SHT31;58747;50.674;4.616;2022-07-30T05:28:23;15.26;86.84
71088;SHT31;58747;50.674;4.616;2022-07-30T05:30:55;15.37;86.80
71088;SHT31;58747;50.674;4.616;2022-07-30T05:33:21;15.38;86.80
71088;SHT31;58747;50.674;4.616;2022-07-30T05:35:47;15.48;86.72
71088;SHT31;58747;50.674;4.616;2022-07-30T05:38:13;15.49;86.64
71088;SHT31;58747;50.674;4.616;2022-07-30T05:40:39;15.55;86.34
71088;SHT31;58747;50.674;4.616;2022-07-30T05:43:04;15.61;86.11
71088;SHT31;58747;50.674;4.616;2022-07-30T05:45:30;15.68;86.35
71088;SHT31;58747;50.674;4.616;2022-07-30T05:47:55;15.69;86.73
71088;SHT31;58747;50.674;4.616;2022-07-30T05:50:21;15.78;86.45
71088;SHT31;58747;50.674;4.616;2022-07-30T05:52:47;15.85;86.34
71088;SHT31;58747;50.674;4.616;2022-07-30T05:55:12;15.92;86.28
71088;SHT31;58747;50.674;4.616;2022-07-30T05:57:38;15.96;86.12
71088;SHT31;58747;50.674;4.616;2022-07-30T06:00:07;16.03;85.70
71088;SHT31;58747;50.674;4.616;2022-07-30T06:02:32;16.21;85.55
71088;SHT31;58747;50.674;4.616;2022-07-30T06:04:58;16.55;84.19
71088;SHT31;58747;50.674;4.616;2022-07-30T06:07:23;16.76;83.04
71088;SHT31;58747;50.674;4.616;2022-07-30T06:09:49;16.92;82.42
71088;SHT31;58747;50.674;4.616;2022-07-30T06:12:14;17.19;81.93
71088;SHT31;58747;50.674;4.616;2022-07-30T06:14:40;17.50;80.53
71088;SHT31;58747;50.674;4.616;2022-07-30T06:17:05;17.92;78.80
71088;SHT31;58747;50.674;4.616;2022-07-30T06:19:30;18.40;77.58
71088;SHT31;58747;50.674;4.616;2022-07-30T06:21:56;19.04;75.12
71088;SHT31;58747;50.674;4.616;2022-07-30T06:24:21;19.54;73.09
71088;SHT31;58747;50.674;4.616;2022-07-30T06:26:47;20.07;71.16
71088;SHT31;58747;50.674;4.616;2022-07-30T06:29:12;20.35;69.66
71088;SHT31;58747;50.674;4.616;2022-07-30T06:31:38;20.71;68.07
71088;SHT31;58747;50.674;4.616;2022-07-30T06:34:05;21.00;67.32
71088;SHT31;58747;50.674;4.616;2022-07-30T06:36:30;20.93;67.26
71088;SHT31;58747;50.674;4.616;2022-07-30T06:38:56;21.07;67.22
71088;SHT31;58747;50.674;4.616;2022-07-30T06:41:21;20.99;67.33
71088;SHT31;58747;50.674;4.616;2022-07-30T06:43:47;20.72;67.67
71088;SHT31;58747;50.674;4.616;2022-07-30T06:46:12;20.51;68.71
71088;SHT31;58747;50.674;4.616;2022-07-30T06:48:38;20.55;69.29
71088;SHT31;58747;50.674;4.616;2022-07-30T06:51:04;20.35;70.05
71088;SHT31;58747;50.674;4.616;2022-07-30T06:53:29;20.34;69.85
71088;SHT31;58747;50.674;4.616;2022-07-30T06:55:54;20.31;69.85
71088;SHT31;58747;50.674;4.616;2022-07-30T06:58:20;20.13;69.48
71088;SHT31;58747;50.674;4.616;2022-07-30T07:00:45;20.04;70.25
71088;SHT31;58747;50.674;4.616;2022-07-30T07:03:11;20.10;69.72
71088;SHT31;58747;50.674;4.616;2022-07-30T07:05:36;20.16;69.52
71088;SHT31;58747;50.674;4.616;2022-07-30T07:08:02;20.27;68.00
71088;SHT31;58747;50.674;4.616;2022-07-30T07:10:28;20.28;67.43
71088;SHT31;58747;50.674;4.616;2022-07-30T07:12:54;20.51;67.23
71088;SHT31;58747;50.674;4.616;2022-07-30T07:15:20;20.09;68.39
71088;SHT31;58747;50.674;4.616;2022-07-30T07:17:46;20.30;68.38
71088;SHT31;58747;50.674;4.616;2022-07-30T07:20:11;20.44;68.30
71088;SHT31;58747;50.674;4.616;2022-07-30T07:22:37;20.55;66.51
71088;SHT31;58747;50.674;4.616;2022-07-30T07:25:03;20.56;64.69
71088;SHT31;58747;50.674;4.616;2022-07-30T07:27:29;20.54;64.21
71088;SHT31;58747;50.674;4.616;2022-07-30T07:29:54;20.58;63.63
71088;SHT31;58747;50.674;4.616;2022-07-30T07:32:20;20.96;63.59
71088;SHT31;58747;50.674;4.616;2022-07-30T07:34:45;21.26;62.20
71088;SHT31;58747;50.674;4.616;2022-07-30T07:37:11;21.10;59.85
71088;SHT31;58747;50.674;4.616;2022-07-30T07:39:36;21.23;59.22
71088;SHT31;58747;50.674;4.616;2022-07-30T07:42:04;20.96;58.74
71088;SHT31;58747;50.674;4.616;2022-07-30T07:44:30;20.89;60.10
71088;SHT31;58747;50.674;4.616;2022-07-30T07:46:55;21.14;60.18
71088;SHT31;58747;50.674;4.616;2022-07-30T07:49:20;20.99;59.97
71088;SHT31;58747;50.674;4.616;2022-07-30T07:51:48;20.95;59.54
71088;SHT31;58747;50.674;4.616;2022-07-30T07:54:14;21.19;58.52
71088;SHT31;58747;50.674;4.616;2022-07-30T07:56:40;21.54;58.25
71088;SHT31;58747;50.674;4.616;2022-07-30T07:59:05;21.57;56.90
71088;SHT31;58747;50.674;4.616;2022-07-30T08:01:31;21.85;56.48
71088;SHT31;58747;50.674;4.616;2022-07-30T08:03:56;21.97;56.80
71088;SHT31;58747;50.674;4.616;2022-07-30T08:06:21;22.20;55.94
71088;SHT31;58747;50.674;4.616;2022-07-30T08:08:47;22.08;56.38
71088;SHT31;58747;50.674;4.616;2022-07-30T08:11:12;21.87;55.41
71088;SHT31;58747;50.674;4.616;2022-07-30T08:13:37;22.26;53.05
71088;SHT31;58747;50.674;4.616;2022-07-30T08:16:03;22.30;53.42
71088;SHT31;58747;50.674;4.616;2022-07-30T08:18:28;22.02;53.63
71088;SHT31;58747;50.674;4.616;2022-07-30T08:20:54;21.99;55.38
71088;SHT31;58747;50.674;4.616;2022-07-30T08:23:19;21.90;53.25
71088;SHT31;58747;50.674;4.616;2022-07-30T08:25:47;22.39;52.81
71088;SHT31;58747;50.674;4.616;2022-07-30T08:28:13;22.53;50.52
71088;SHT31;58747;50.674;4.616;2022-07-30T08:30:38;22.78;48.00
71088;SHT31;58747;50.674;4.616;2022-07-30T08:33:04;23.04;49.14
71088;SHT31;58747;50.674;4.616;2022-07-30T08:35:29;23.00;49.27
71088;SHT31;58747;50.674;4.616;2022-07-30T08:37:54;23.37;49.08
71088;SHT31;58747;50.674;4.616;2022-07-30T08:40:20;23.39;49.41
71088;SHT31;58747;50.674;4.616;2022-07-30T08:42:45;23.15;49.09
71088;SHT31;58747;50.674;4.616;2022-07-30T08:45:12;23.41;48.49
71088;SHT31;58747;50.674;4.616;2022-07-30T08:47:40;23.67;48.75
71088;SHT31;58747;50.674;4.616;2022-07-30T08:50:08;24.09;47.54
71088;SHT31;58747;50.674;4.616;2022-07-30T08:52:35;24.16;47.81
71088;SHT31;58747;50.674;4.616;2022-07-30T08:55:03;23.77;49.32
71088;SHT31;58747;50.674;4.616;2022-07-30T08:57:29;24.02;47.53
71088;SHT31;58747;50.674;4.616;2022-07-30T08:59:56;24.14;48.09
71088;SHT31;58747;50.674;4.616;2022-07-30T09:02:22;24.48;46.46
71088;SHT31;58747;50.674;4.616;2022-07-30T09:04:48;24.83;46.58
71088;SHT31;58747;50.674;4.616;2022-07-30T09:07:13;24.92;45.01
71088;SHT31;58747;50.674;4.616;2022-07-30T09:09:38;25.00;44.58
71088;SHT31;58747;50.674;4.616;2022-07-30T09:15:17;24.93;42.15
71088;SHT31;58747;50.674;4.616;2022-07-30T09:18:02;25.50;41.92
71088;SHT31;58747;50.674;4.616;2022-07-30T09:20:31;25.47;42.37
71088;SHT31;58747;50.674;4.616;2022-07-30T09:23:00;25.56;44.00
71088;SHT31;58747;50.674;4.616;2022-07-30T09:25:52;25.18;43.93
71088;SHT31;58747;50.674;4.616;2022-07-30T09:28:30;25.23;44.15
71088;SHT31;58747;50.674;4.616;2022-07-30T09:30:56;25.27;43.82
71088;SHT31;58747;50.674;4.616;2022-07-30T09:36:03;25.61;43.12
71088;SHT31;58747;50.674;4.616;2022-07-30T09:38:28;25.49;42.72
71088;SHT31;58747;50.674;4.616;2022-07-30T09:40:55;25.24;43.47
71088;SHT31;58747;50.674;4.616;2022-07-30T09:43:21;25.15;43.51
71088;SHT31;58747;50.674;4.616;2022-07-30T09:45:55;25.61;43.18
71088;SHT31;58747;50.674;4.616;2022-07-30T09:48:24;25.99;42.80
71088;SHT31;58747;50.674;4.616;2022-07-30T09:50:51;25.88;41.66
71088;SHT31;58747;50.674;4.616;2022-07-30T09:53:17;25.91;41.68
71088;SHT31;58747;50.674;4.616;2022-07-30T09:55:43;26.19;41.78
71088;SHT31;58747;50.674;4.616;2022-07-30T09:58:10;26.21;40.86
71088;SHT31;58747;50.674;4.616;2022-07-30T10:00:36;26.36;41.43
71088;SHT31;58747;50.674;4.616;2022-07-30T10:03:24;26.33;40.99
71088;SHT31;58747;50.674;4.616;2022-07-30T10:08:15;26.59;39.98
71088;SHT31;58747;50.674;4.616;2022-07-30T10:10:41;26.15;40.68
71088;SHT31;58747;50.674;4.616;2022-07-30T10:13:08;26.52;40.25
71088;SHT31;58747;50.674;4.616;2022-07-30T10:15:35;26.64;40.92
71088;SHT31;58747;50.674;4.616;2022-07-30T10:18:05;26.59;40.96
71088;SHT31;58747;50.674;4.616;2022-07-30T10:20:31;26.69;40.31
71088;SHT31;58747;50.674;4.616;2022-07-30T10:22:57;26.94;41.10
71088;SHT31;58747;50.674;4.616;2022-07-30T10:25:24;27.22;40.75
71088;SHT31;58747;50.674;4.616;2022-07-30T10:27:51;26.95;40.86
71088;SHT31;58747;50.674;4.616;2022-07-30T10:30:18;27.11;41.24
71088;SHT31;58747;50.674;4.616;2022-07-30T10:32:44;26.61;41.27
71088;SHT31;58747;50.674;4.616;2022-07-30T10:35:11;26.46;41.23
71088;SHT31;58747;50.674;4.616;2022-07-30T10:37:40;26.59;42.60
71088;SHT31;58747;50.674;4.616;2022-07-30T10:48:23;27.14;40.43
71088;SHT31;58747;50.674;4.616;2022-07-30T10:50:55;26.83;40.53
71088;SHT31;58747;50.674;4.616;2022-07-30T10:53:37;27.25;40.41
71088;SHT31;58747;50.674;4.616;2022-07-30T10:56:17;26.77;39.48
71088;SHT31;58747;50.674;4.616;2022-07-30T10:59:10;27.20;38.73
71088;SHT31;58747;50.674;4.616;2022-07-30T11:04:20;27.56;40.03
71088;SHT31;58747;50.674;4.616;2022-07-30T11:06:46;27.93;39.01
71088;SHT31;58747;50.674;4.616;2022-07-30T11:09:38;27.63;38.05
71088;SHT31;58747;50.674;4.616;2022-07-30T11:12:05;28.24;37.47
71088;SHT31;58747;50.674;4.616;2022-07-30T11:22:52;29.19;35.56
71088;SHT31;58747;50.674;4.616;2022-07-30T11:25:49;29.16;35.87
71088;SHT31;58747;50.674;4.616;2022-07-30T11:28:50;28.10;37.46
71088;SHT31;58747;50.674;4.616;2022-07-30T11:31:39;28.00;38.19
71088;SHT31;58747;50.674;4.616;2022-07-30T11:37:31;28.75;37.21
71088;SHT31;58747;50.674;4.616;2022-07-30T11:40:33;29.57;34.29
71088;SHT31;58747;50.674;4.616;2022-07-30T11:46:27;29.06;35.58
71088;SHT31;58747;50.674;4.616;2022-07-30T11:49:33;28.58;36.25
71088;SHT31;58747;50.674;4.616;2022-07-30T11:52:11;28.50;37.38
71088;SHT31;58747;50.674;4.616;2022-07-30T11:58:43;30.66;34.75
71088;SHT31;58747;50.674;4.616;2022-07-30T12:01:28;31.78;31.87
71088;SHT31;58747;50.674;4.616;2022-07-30T12:04:30;33.08;28.83
71088;SHT31;58747;50.674;4.616;2022-07-30T12:07:51;32.36;29.50
71088;SHT31;58747;50.674;4.616;2022-07-30T12:14:23;33.60;28.81
71088;SHT31;58747;50.674;4.616;2022-07-30T12:17:21;33.39;28.48
71088;SHT31;58747;50.674;4.616;2022-07-30T12:20:52;32.06;30.50
71088;SHT31;58747;50.674;4.616;2022-07-30T12:23:51;31.68;31.79
71088;SHT31;58747;50.674;4.616;2022-07-30T12:26:30;32.81;29.40
71088;SHT31;58747;50.674;4.616;2022-07-30T12:29:43;35.18;27.25
71088;SHT31;58747;50.674;4.616;2022-07-30T12:39:03;33.83;28.40
71088;SHT31;58747;50.674;4.616;2022-07-30T12:45:08;33.43;28.22
71088;SHT31;58747;50.674;4.616;2022-07-30T12:48:34;35.23;27.76
71088;SHT31;58747;50.674;4.616;2022-07-30T12:51:34;37.08;23.89
71088;SHT31;58747;50.674;4.616;2022-07-30T12:54:24;37.54;23.56
71088;SHT31;58747;50.674;4.616;2022-07-30T13:03:28;35.81;25.23
71088;SHT31;58747;50.674;4.616;2022-07-30T13:10:12;33.18;28.83
71088;SHT31;58747;50.674;4.616;2022-07-30T13:13:18;31.89;29.26
71088;SHT31;58747;50.674;4.616;2022-07-30T13:16:46;31.68;30.13
71088;SHT31;58747;50.674;4.616;2022-07-30T13:19:27;30.14;31.27
71088;SHT31;58747;50.674;4.616;2022-07-30T13:22:27;29.51;34.32
71088;SHT31;58747;50.674;4.616;2022-07-30T13:25:23;29.50;33.59
71088;SHT31;58747;50.674;4.616;2022-07-30T13:28:19;29.22;33.32
71088;SHT31;58747;50.674;4.616;2022-07-30T13:31:23;29.16;34.39
71088;SHT31;58747;50.674;4.616;2022-07-30T13:34:17;29.15;33.47
71088;SHT31;58747;50.674;4.616;2022-07-30T13:37:14;28.96;34.34
71088;SHT31;58747;50.674;4.616;2022-07-30T13:39:57;28.96;35.12
71088;SHT31;58747;50.674;4.616;2022-07-30T13:43:00;28.96;35.04
71088;SHT31;58747;50.674;4.616;2022-07-30T13:45:54;28.87;34.99
71088;SHT31;58747;50.674;4.616;2022-07-30T13:51:47;28.78;33.87
71088;SHT31;58747;50.674;4.616;2022-07-30T13:57:43;28.91;33.91
71088;SHT31;58747;50.674;4.616;2022-07-30T14:00:26;28.92;34.99
71088;SHT31;58747;50.674;4.616;2022-07-30T14:06:30;28.89;34.66
71088;SHT31;58747;50.674;4.616;2022-07-30T14:09:16;29.02;35.60
71088;SHT31;58747;50.674;4.616;2022-07-30T14:11:41;29.10;34.15
71088;SHT31;58747;50.674;4.616;2022-07-30T14:14:07;28.85;33.73
71088;SHT31;58747;50.674;4.616;2022-07-30T14:16:32;28.57;35.81
71088;SHT31;58747;50.674;4.616;2022-07-30T14:18:58;28.54;35.48
71088;SHT31;58747;50.674;4.616;2022-07-30T14:21:24;28.69;36.12
71088;SHT31;58747;50.674;4.616;2022-07-30T14:23:49;28.78;33.91
71088;SHT31;58747;50.674;4.616;2022-07-30T14:26:15;28.79;35.80
71088;SHT31;58747;50.674;4.616;2022-07-30T14:28:40;28.58;35.08
71088;SHT31;58747;50.674;4.616;2022-07-30T14:31:05;28.50;34.84
71088;SHT31;58747;50.674;4.616;2022-07-30T14:33:31;28.47;34.90
71088;SHT31;58747;50.674;4.616;2022-07-30T14:35:56;28.23;35.14
71088;SHT31;58747;50.674;4.616;2022-07-30T14:38:21;28.33;34.48
71088;SHT31;58747;50.674;4.616;2022-07-30T14:40:47;28.30;35.28
71088;SHT31;58747;50.674;4.616;2022-07-30T14:43:12;27.99;35.96
71088;SHT31;58747;50.674;4.616;2022-07-30T14:45:38;28.14;36.05
71088;SHT31;58747;50.674;4.616;2022-07-30T14:48:04;28.25;37.77
71088;SHT31;58747;50.674;4.616;2022-07-30T14:50:29;28.28;35.93
71088;SHT31;58747;50.674;4.616;2022-07-30T14:52:55;28.14;34.71
71088;SHT31;58747;50.674;4.616;2022-07-30T14:55:20;27.97;34.44
71088;SHT31;58747;50.674;4.616;2022-07-30T14:57:46;28.11;35.38
71088;SHT31;58747;50.674;4.616;2022-07-30T15:00:11;27.89;35.83
71088;SHT31;58747;50.674;4.616;2022-07-30T15:02:37;27.89;35.06
71088;SHT31;58747;50.674;4.616;2022-07-30T15:05:03;28.04;36.45
71088;SHT31;58747;50.674;4.616;2022-07-30T15:07:28;28.10;36.05
71088;SHT31;58747;50.674;4.616;2022-07-30T15:09:54;28.30;34.43
71088;SHT31;58747;50.674;4.616;2022-07-30T15:12:19;28.14;34.71
71088;SHT31;58747;50.674;4.616;2022-07-30T15:14:45;28.09;34.26
71088;SHT31;58747;50.674;4.616;2022-07-30T15:17:13;27.69;34.64
71088;SHT31;58747;50.674;4.616;2022-07-30T15:19:38;27.61;35.63
71088;SHT31;58747;50.674;4.616;2022-07-30T15:22:04;27.89;36.01
71088;SHT31;58747;50.674;4.616;2022-07-30T15:24:30;27.79;35.35
71088;SHT31;58747;50.674;4.616;2022-07-30T15:26:56;27.82;34.96
71088;SHT31;58747;50.674;4.616;2022-07-30T15:29:21;27.69;35.54
71088;SHT31;58747;50.674;4.616;2022-07-30T15:31:49;27.56;34.95
71088;SHT31;58747;50.674;4.616;2022-07-30T15:34:14;27.51;36.34
71088;SHT31;58747;50.674;4.616;2022-07-30T15:36:40;27.65;35.51
71088;SHT31;58747;50.674;4.616;2022-07-30T15:39:06;27.66;36.90
71088;SHT31;58747;50.674;4.616;2022-07-30T15:41:32;27.39;36.03
71088;SHT31;58747;50.674;4.616;2022-07-30T15:43:57;27.16;37.28
71088;SHT31;58747;50.674;4.616;2022-07-30T15:46:23;27.32;36.53
71088;SHT31;58747;50.674;4.616;2022-07-30T15:48:48;27.20;35.96
71088;SHT31;58747;50.674;4.616;2022-07-30T15:51:13;27.28;36.78
71088;SHT31;58747;50.674;4.616;2022-07-30T15:53:39;27.32;35.57
71088;SHT31;58747;50.674;4.616;2022-07-30T15:56:04;27.46;36.53
71088;SHT31;58747;50.674;4.616;2022-07-30T15:58:30;27.42;36.63
71088;SHT31;58747;50.674;4.616;2022-07-30T16:00:55;27.44;36.13
71088;SHT31;58747;50.674;4.616;2022-07-30T16:03:20;27.25;38.04
71088;SHT31;58747;50.674;4.616;2022-07-30T16:05:46;27.24;38.64
71088;SHT31;58747;50.674;4.616;2022-07-30T16:08:11;27.28;39.29
71088;SHT31;58747;50.674;4.616;2022-07-30T16:10:37;27.20;37.11
71088;SHT31;58747;50.674;4.616;2022-07-30T16:13:05;27.08;37.16
71088;SHT31;58747;50.674;4.616;2022-07-30T16:15:31;27.03;37.83
71088;SHT31;58747;50.674;4.616;2022-07-30T16:17:56;26.94;37.16
71088;SHT31;58747;50.674;4.616;2022-07-30T16:20:21;26.98;40.17
71088;SHT31;58747;50.674;4.616;2022-07-30T16:22:47;26.88;39.25
71088;SHT31;58747;50.674;4.616;2022-07-30T16:25:12;27.05;38.24
71088;SHT31;58747;50.674;4.616;2022-07-30T16:27:37;27.22;39.11
71088;SHT31;58747;50.674;4.616;2022-07-30T16:30:03;27.21;38.65
71088;SHT31;58747;50.674;4.616;2022-07-30T16:32:29;27.15;38.38
71088;SHT31;58747;50.674;4.616;2022-07-30T16:34:54;26.88;40.34
71088;SHT31;58747;50.674;4.616;2022-07-30T16:37:19;26.98;40.93
71088;SHT31;58747;50.674;4.616;2022-07-30T16:39:45;26.97;40.99
71088;SHT31;58747;50.674;4.616;2022-07-30T16:42:10;26.90;39.51
71088;SHT31;58747;50.674;4.616;2022-07-30T16:44:36;26.98;41.12
71088;SHT31;58747;50.674;4.616;2022-07-30T16:47:01;27.00;40.42
71088;SHT31;58747;50.674;4.616;2022-07-30T16:49:26;26.90;40.82
71088;SHT31;58747;50.674;4.616;2022-07-30T16:51:52;26.87;39.53
71088;SHT31;58747;50.674;4.616;2022-07-30T16:54:18;26.94;39.23
71088;SHT31;58747;50.674;4.616;2022-07-30T16:56:43;27.00;39.95
71088;SHT31;58747;50.674;4.616;2022-07-30T16:59:09;27.04;40.29
71088;SHT31;58747;50.674;4.616;2022-07-30T17:01:34;27.00;39.55
71088;SHT31;58747;50.674;4.616;2022-07-30T17:04:00;27.00;38.69